Time;durP1;ratioP1;P1;durP2;ratioP2;P2;SDS_P1;SDS_P2;PMS_P1;PMS_P2;Temp;Humidity;BMP_temperature;BMP_pressure;BME280_temperature;BME280_humidity;BME280_pressure;Samples;Min_cycle;Max_cycle;Signal;HPM_P1;HPM_P2
2021/07/08 00:01:43;;;;;;;4.68;2.90;;;;;;;19.89;72.98;93010.09;2048127;70;20594;-74
2021/07/08 00:04:09;;;;;;;4.22;2.63;;;;;;;19.87;71.67;93000.72;2047367;70;20153;-74
2021/07/08 00:06:34;;;;;;;4.00;2.60;;;;;;;19.95;71.03;93024.56;2048062;70;20147;-75
2021/07/08 00:09:00;;;;;;;3.60;2.08;;;;;;;19.97;69.20;93018.19;2048067;70;20146;-74
2021/07/08 00:11:27;;;;;;;4.85;2.40;;;;;;;19.88;71.72;93005.75;2048186;70;20146;-74
2021/07/08 00:13:54;;;;;;;5.18;2.40;;;;;;;20.01;70.77;93004.00;2048153;70;20147;-74
2021/07/08 00:16:19;;;;;;;4.05;2.30;;;;;;;19.86;71.59;93011.41;2048122;70;20242;-75
2021/07/08 00:18:45;;;;;;;3.50;2.40;;;;;;;19.78;72.54;93000.47;2048130;70;20737;-75
2021/07/08 00:21:11;;;;;;;3.55;2.30;;;;;;;19.67;72.89;93006.53;2048134;70;20155;-75
2021/07/08 00:23:37;;;;;;;6.72;2.30;;;;;;;19.60;70.12;92991.31;2048168;70;20154;-75
2021/07/08 00:26:03;;;;;;;3.75;2.15;;;;;;;19.72;70.82;92979.56;2048144;70;20518;-75
2021/07/08 00:28:28;;;;;;;3.72;2.20;;;;;;;19.57;72.09;92969.06;2044914;70;20147;-75
2021/07/08 00:30:54;;;;;;;4.15;2.20;;;;;;;19.52;73.26;92971.78;2048130;70;20599;-75
2021/07/08 00:33:20;;;;;;;4.47;2.67;;;;;;;19.30;72.70;92957.53;2048048;70;20417;-75
2021/07/08 00:35:47;;;;;;;3.55;2.22;;;;;;;19.68;68.49;92968.00;2048131;70;20163;-75
2021/07/08 00:38:13;;;;;;;5.47;2.20;;;;;;;19.54;70.89;92980.41;2048075;70;20222;-75
2021/07/08 00:40:39;;;;;;;4.47;2.05;;;;;;;19.44;72.36;92973.66;2048111;70;20154;-75
2021/07/08 00:43:06;;;;;;;6.47;2.83;;;;;;;19.09;72.75;92975.38;2048089;70;20661;-75
2021/07/08 00:45:32;;;;;;;4.97;2.92;;;;;;;19.46;71.02;92983.00;2048055;70;20162;-75
2021/07/08 00:47:58;;;;;;;3.03;2.72;;;;;;;19.64;70.51;92974.31;2048023;70;20150;-75
2021/07/08 00:50:32;;;;;;;6.45;2.50;;;;;;;19.45;71.25;92978.69;2044636;70;20209;-74
2021/07/08 00:52:58;;;;;;;5.85;2.63;;;;;;;19.54;70.49;92980.41;2047658;70;20218;-74
2021/07/08 00:55:24;;;;;;;4.70;2.92;;;;;;;19.33;71.95;92980.41;2048126;70;20155;-75
2021/07/08 00:57:53;;;;;;;4.40;2.95;;;;;;;19.15;73.21;92975.59;2047457;70;20150;-74
2021/07/08 01:00:34;;;;;;;4.45;3.00;;;;;;;19.36;71.55;92976.25;2048046;70;20139;-74
2021/07/08 01:03:00;;;;;;;3.03;2.72;;;;;;;19.19;73.13;92984.25;2048175;70;20517;-75
2021/07/08 01:05:33;;;;;;;3.45;2.90;;;;;;;19.25;72.24;92983.75;2047952;70;20591;-74
2021/07/08 01:08:00;;;;;;;3.05;2.40;;;;;;;19.28;71.71;92977.41;2047528;70;20138;-74
2021/07/08 01:10:27;;;;;;;4.00;2.50;;;;;;;19.21;71.12;92972.19;2048064;70;20151;-74
2021/07/08 01:12:53;;;;;;;4.80;2.80;;;;;;;19.41;70.27;92967.13;2048020;70;20145;-75
2021/07/08 01:15:19;;;;;;;4.65;2.47;;;;;;;19.35;71.37;92969.06;2048027;70;20213;-74
2021/07/08 01:17:45;;;;;;;3.95;3.20;;;;;;;19.20;73.14;92971.47;2048216;70;20150;-75
2021/07/08 01:20:14;;;;;;;3.55;2.40;;;;;;;19.17;73.07;92969.19;2047828;70;20602;-74
2021/07/08 01:22:41;;;;;;;4.63;2.20;;;;;;;19.18;72.80;92971.38;2047928;70;20182;-75
2021/07/08 01:25:09;;;;;;;4.72;2.10;;;;;;;19.16;72.28;92957.06;2047946;70;20172;-75
2021/07/08 01:27:37;;;;;;;7.05;2.20;;;;;;;19.10;72.88;92956.13;2047463;70;20258;-76
2021/07/08 01:30:07;;;;;;;6.22;2.40;;;;;;;19.14;73.06;92939.84;2047965;70;20150;-75
2021/07/08 01:32:32;;;;;;;2.30;2.10;;;;;;;19.09;74.13;92940.41;2047490;70;20135;-75
2021/07/08 01:34:58;;;;;;;2.80;2.35;;;;;;;19.17;73.52;92947.09;2047646;70;20213;-75
2021/07/08 01:37:24;;;;;;;3.83;2.40;;;;;;;19.12;74.33;92939.81;2048110;70;20510;-73
2021/07/08 01:39:49;;;;;;;3.85;2.00;;;;;;;19.05;74.96;92949.53;2048003;70;20260;-73
2021/07/08 01:42:15;;;;;;;6.70;2.35;;;;;;;19.27;70.29;92956.00;2047910;70;20498;-72
2021/07/08 01:44:41;;;;;;;3.58;2.10;;;;;;;19.26;70.40;92957.38;2047366;70;20173;-75
2021/07/08 01:47:06;;;;;;;5.13;3.08;;;;;;;18.74;75.19;92953.50;2047968;70;20186;-75
2021/07/08 01:49:35;;;;;;;4.43;3.00;;;;;;;18.93;74.91;92958.44;2047283;70;20602;-75
2021/07/08 01:52:02;;;;;;;5.63;3.30;;;;;;;19.05;73.10;92958.81;2048060;70;20251;-75
2021/07/08 01:54:28;;;;;;;3.28;2.90;;;;;;;19.00;74.83;92956.50;2047915;70;20218;-75
2021/07/08 01:56:55;;;;;;;5.10;3.22;;;;;;;19.04;74.94;92943.09;2047899;70;20154;-75
2021/07/08 01:59:20;;;;;;;9.23;2.95;;;;;;;19.11;71.47;92944.06;2048068;70;20233;-75
2021/07/08 02:01:46;;;;;;;4.95;3.08;;;;;;;19.25;72.58;92949.50;2047885;70;20164;-75
2021/07/08 02:04:11;;;;;;;4.55;3.08;;;;;;;19.16;72.35;92942.06;2047832;70;20541;-76
2021/07/08 02:06:37;;;;;;;6.25;3.00;;;;;;;19.23;70.84;92935.16;2044580;70;20154;-75
2021/07/08 02:09:07;;;;;;;6.80;3.15;;;;;;;19.23;73.58;92935.88;2047922;70;20166;-75
2021/07/08 02:11:33;;;;;;;2.90;2.60;;;;;;;19.19;73.24;92926.44;2047280;70;20146;-76
2021/07/08 02:13:58;;;;;;;5.55;2.75;;;;;;;19.27;71.94;92921.00;2047810;70;20159;-75
2021/07/08 02:16:24;;;;;;;4.43;2.65;;;;;;;19.19;74.11;92929.31;2047953;70;20131;-75
2021/07/08 02:18:51;;;;;;;7.47;3.42;;;;;;;19.03;74.74;92933.09;2047729;70;20339;-75
2021/07/08 02:21:17;;;;;;;3.25;2.95;;;;;;;18.93;74.26;92924.22;2047364;70;20166;-75
2021/07/08 02:23:42;;;;;;;3.47;2.85;;;;;;;19.07;72.45;92923.22;2047840;70;20149;-75
2021/07/08 02:26:08;;;;;;;4.70;3.05;;;;;;;19.11;74.09;92920.50;2047849;70;20229;-72
2021/07/08 02:28:35;;;;;;;4.05;3.15;;;;;;;19.03;74.53;92920.97;2047947;70;20602;-73
2021/07/08 02:31:01;;;;;;;2.90;2.55;;;;;;;19.17;71.69;92912.13;2047367;70;20538;-73
2021/07/08 02:33:27;;;;;;;4.07;3.00;;;;;;;19.07;73.16;92906.81;2047783;70;20175;-76
2021/07/08 02:35:53;;;;;;;3.53;3.00;;;;;;;18.96;74.52;92911.44;2047700;70;20165;-73
2021/07/08 02:38:19;;;;;;;3.90;2.80;;;;;;;18.68;75.62;92919.75;2047202;70;20231;-73
2021/07/08 02:40:45;;;;;;;5.68;2.80;;;;;;;18.93;73.51;92912.06;2047847;70;20221;-73
2021/07/08 02:43:11;;;;;;;6.22;2.50;;;;;;;19.14;72.76;92913.44;2047821;70;20665;-74
2021/07/08 02:45:39;;;;;;;4.00;2.38;;;;;;;19.22;71.52;92903.03;2047848;70;20150;-74
2021/07/08 02:48:08;;;;;;;3.25;2.00;;;;;;;19.40;69.98;92914.31;2048362;70;20263;-74
2021/07/08 02:50:35;;;;;;;4.72;2.67;;;;;;;19.26;72.67;92911.00;2048131;70;20186;-74
2021/07/08 02:53:01;;;;;;;2.72;2.20;;;;;;;19.19;72.20;92901.50;2048395;70;20139;-75
2021/07/08 02:55:28;;;;;;;2.78;2.55;;;;;;;19.22;72.94;92919.44;2047655;70;20167;-75
2021/07/08 02:57:55;;;;;;;4.22;2.40;;;;;;;19.27;71.69;92918.88;2048231;70;20158;-73
2021/07/08 03:00:23;;;;;;;2.85;2.53;;;;;;;19.15;73.91;92920.63;2048247;70;20146;-74
2021/07/08 03:02:49;;;;;;;2.72;2.42;;;;;;;19.13;73.87;92917.72;2048202;70;20156;-74
2021/07/08 03:05:16;;;;;;;3.10;2.40;;;;;;;19.21;72.90;92921.56;2047553;70;20155;-75
2021/07/08 03:07:41;;;;;;;4.65;2.55;;;;;;;19.25;70.46;92940.94;2048223;70;20149;-74
2021/07/08 03:10:10;;;;;;;4.55;2.50;;;;;;;19.19;71.49;92938.59;2048232;70;20147;-74
2021/07/08 03:12:36;;;;;;;2.20;2.00;;;;;;;19.22;70.51;92942.25;2048267;70;20562;-74
2021/07/08 03:15:03;;;;;;;3.75;2.42;;;;;;;19.10;70.56;92941.84;2048191;70;20151;-73
2021/07/08 03:17:29;;;;;;;3.20;2.20;;;;;;;19.28;67.90;92937.47;2048228;70;20234;-74
2021/07/08 03:19:55;;;;;;;4.32;2.55;;;;;;;19.24;70.82;92928.03;2047636;70;20138;-74
2021/07/08 03:22:20;;;;;;;4.20;2.22;;;;;;;19.17;72.55;92921.41;2048366;70;20131;-73
2021/07/08 03:24:46;;;;;;;3.22;2.28;;;;;;;19.24;70.88;92919.47;2047681;70;20584;-74
2021/07/08 03:27:12;;;;;;;4.45;2.30;;;;;;;19.01;72.00;92921.63;2048246;70;20143;-74
2021/07/08 03:29:37;;;;;;;6.50;2.50;;;;;;;19.09;69.54;92923.28;2048169;70;20510;-74
2021/07/08 03:32:04;;;;;;;3.83;2.33;;;;;;;18.79;71.66;92930.16;2048440;70;20204;-74
2021/07/08 03:34:29;;;;;;;2.97;2.00;;;;;;;18.54;73.63;92930.69;2047583;70;20151;-74
2021/07/08 03:36:55;;;;;;;3.47;2.20;;;;;;;18.88;70.86;92942.59;2047588;70;20221;-74
2021/07/08 03:39:21;;;;;;;2.83;2.20;;;;;;;18.78;72.15;92942.97;2048183;70;20138;-74
2021/07/08 03:41:46;;;;;;;2.40;2.05;;;;;;;18.69;71.96;92940.47;2047660;70;20163;-74
2021/07/08 03:44:12;;;;;;;2.60;1.98;;;;;;;18.85;70.81;92954.56;2048143;70;20143;-74
2021/07/08 03:46:38;;;;;;;2.08;1.88;;;;;;;18.88;71.01;92947.56;2047446;70;20568;-74
2021/07/08 03:49:04;;;;;;;5.28;2.30;;;;;;;18.79;70.67;92940.84;2048046;70;20246;-74
2021/07/08 03:51:30;;;;;;;2.45;1.98;;;;;;;18.75;69.58;92941.44;2048194;70;20143;-74
2021/07/08 03:53:55;;;;;;;3.85;2.38;;;;;;;18.77;70.45;92952.91;2048178;70;20183;-74
2021/07/08 03:56:21;;;;;;;4.20;2.13;;;;;;;18.54;71.93;92956.34;2048149;70;20147;-75
2021/07/08 03:58:46;;;;;;;4.35;2.10;;;;;;;18.53;72.94;92961.31;2048063;70;20222;-74
2021/07/08 04:01:12;;;;;;;4.82;2.17;;;;;;;18.69;70.37;92946.19;2048333;70;20245;-74
2021/07/08 04:03:38;;;;;;;2.42;1.92;;;;;;;18.60;71.71;92942.31;2048330;70;20143;-73
2021/07/08 04:06:03;;;;;;;3.38;2.00;;;;;;;18.34;72.85;92947.81;2048095;70;20230;-74
2021/07/08 04:08:29;;;;;;;4.30;2.10;;;;;;;18.42;71.07;92944.53;2048238;70;20681;-74
2021/07/08 04:10:55;;;;;;;3.42;2.00;;;;;;;18.51;71.04;92949.13;2048327;70;20613;-74
2021/07/08 04:13:21;;;;;;;2.75;1.80;;;;;;;18.63;70.66;92943.81;2048172;70;20150;-74
2021/07/08 04:15:48;;;;;;;4.10;2.13;;;;;;;18.65;70.48;92941.06;2048307;70;20482;-74
2021/07/08 04:18:15;;;;;;;2.35;2.10;;;;;;;18.43;71.02;92934.56;2048151;70;20234;-74
2021/07/08 04:20:42;;;;;;;3.03;2.30;;;;;;;18.43;70.94;92943.13;2048295;70;20225;-74
2021/07/08 04:23:11;;;;;;;2.10;1.90;;;;;;;18.54;69.96;92942.09;2048183;70;20233;-75
2021/07/08 04:25:37;;;;;;;4.70;2.00;;;;;;;18.44;71.05;92938.88;2048169;70;20607;-73
2021/07/08 04:28:03;;;;;;;3.78;2.10;;;;;;;18.59;70.79;92940.84;2048273;70;20598;-73
2021/07/08 04:30:29;;;;;;;5.22;2.17;;;;;;;18.69;70.15;92935.53;2048156;70;20147;-74
2021/07/08 04:32:55;;;;;;;2.58;2.10;;;;;;;18.71;70.13;92932.72;2048137;70;20157;-73
2021/07/08 04:35:28;;;;;;;3.95;2.30;;;;;;;18.54;71.47;92944.94;2047452;70;20236;-74
2021/07/08 04:37:54;;;;;;;2.13;1.80;;;;;;;18.69;69.78;92949.03;2048185;70;20229;-74
2021/07/08 04:40:20;;;;;;;4.45;1.90;;;;;;;18.54;71.51;92936.38;2048166;70;20235;-74
2021/07/08 04:42:48;;;;;;;4.28;2.05;;;;;;;18.59;70.94;92926.56;2048119;70;20233;-75
2021/07/08 04:45:14;;;;;;;3.58;2.15;;;;;;;18.70;69.49;92931.28;2048016;70;20158;-73
2021/07/08 04:47:41;;;;;;;4.32;2.08;;;;;;;18.47;70.04;92929.75;2047997;70;20245;-74
2021/07/08 04:50:13;;;;;;;3.67;2.40;;;;;;;18.41;70.47;92932.38;2047912;70;20169;-74
2021/07/08 04:52:38;;;;;;;5.63;2.65;;;;;;;18.44;69.59;92941.72;2048201;70;20597;-74
2021/07/08 04:55:06;;;;;;;3.38;1.90;;;;;;;18.57;69.05;92949.31;2048306;70;20154;-74
2021/07/08 04:57:32;;;;;;;3.05;2.10;;;;;;;18.51;71.57;92955.53;2048145;70;20159;-74
2021/07/08 04:59:57;;;;;;;7.45;2.30;;;;;;;18.46;70.99;92942.53;2047513;70;20149;-74
2021/07/08 05:02:23;;;;;;;6.38;2.58;;;;;;;18.44;71.28;92939.59;2048042;70;20178;-74
2021/07/08 05:04:49;;;;;;;3.90;2.42;;;;;;;18.51;70.33;92937.72;2048100;70;20503;-74
2021/07/08 05:07:16;;;;;;;6.25;2.78;;;;;;;18.65;69.43;92943.19;2048037;70;20239;-74
2021/07/08 05:09:42;;;;;;;4.30;2.30;;;;;;;18.82;68.69;92950.91;2047920;70;20161;-74
2021/07/08 05:12:08;;;;;;;6.55;2.70;;;;;;;18.58;70.16;92945.06;2048077;70;20162;-74
2021/07/08 05:14:34;;;;;;;2.50;2.10;;;;;;;18.73;69.61;92940.63;2047997;70;20627;-73
2021/07/08 05:17:03;;;;;;;2.70;2.00;;;;;;;18.81;68.97;92935.19;2047957;70;20154;-73
2021/07/08 05:19:29;;;;;;;3.60;2.22;;;;;;;18.84;69.28;92919.63;2047881;70;20142;-74
2021/07/08 05:21:56;;;;;;;3.72;2.03;;;;;;;18.75;68.90;92918.63;2047974;70;20131;-73
2021/07/08 05:24:26;;;;;;;4.18;2.40;;;;;;;18.73;68.76;92918.53;2047910;70;20602;-74
2021/07/08 05:26:52;;;;;;;3.65;2.17;;;;;;;18.68;70.78;92919.03;2048013;70;20156;-74
2021/07/08 05:29:18;;;;;;;4.00;2.00;;;;;;;18.60;71.23;92921.59;2048115;70;20513;-73
2021/07/08 05:31:43;;;;;;;2.40;2.03;;;;;;;18.67;70.82;92929.00;2048125;70;20574;-73
2021/07/08 05:34:09;;;;;;;6.00;2.22;;;;;;;18.77;68.42;92935.78;2047805;70;20517;-73
2021/07/08 05:36:35;;;;;;;3.97;2.45;;;;;;;18.28;72.63;92930.50;2047966;70;20237;-74
2021/07/08 05:39:03;;;;;;;5.40;2.70;;;;;;;18.46;72.46;92931.16;2048068;70;20147;-73
2021/07/08 05:41:28;;;;;;;3.72;2.20;;;;;;;18.64;71.26;92933.88;2047455;70;20147;-73
2021/07/08 05:43:54;;;;;;;3.35;2.75;;;;;;;18.66;72.69;92942.50;2047982;70;20641;-73
2021/07/08 05:46:22;;;;;;;3.78;2.45;;;;;;;18.57;73.21;92946.47;2047894;70;20145;-73
2021/07/08 05:48:48;;;;;;;4.18;2.30;;;;;;;18.89;67.96;92935.47;2047976;70;20167;-74
2021/07/08 05:51:13;;;;;;;3.78;2.10;;;;;;;18.94;69.87;92942.06;2048082;70;20146;-73
2021/07/08 05:53:39;;;;;;;4.85;2.78;;;;;;;18.50;73.02;92933.38;2048076;70;20153;-73
2021/07/08 05:56:06;;;;;;;3.45;2.50;;;;;;;18.20;74.64;92950.88;2048078;70;20194;-73
2021/07/08 05:58:31;;;;;;;3.20;2.72;;;;;;;18.52;71.83;92951.31;2047921;70;20143;-73
2021/07/08 06:00:57;;;;;;;3.45;2.47;;;;;;;18.88;71.65;92945.44;2047954;70;20166;-73
2021/07/08 06:03:23;;;;;;;4.05;2.38;;;;;;;19.17;67.43;92963.50;2047983;70;20139;-75
2021/07/08 06:05:50;;;;;;;4.78;2.40;;;;;;;19.29;69.90;92961.78;2047845;70;20218;-75
2021/07/08 06:08:16;;;;;;;5.97;2.33;;;;;;;19.37;66.20;92963.41;2048055;70;20150;-74
2021/07/08 06:10:42;;;;;;;3.05;2.35;;;;;;;19.47;70.44;92955.19;2047888;70;20514;-73
2021/07/08 06:13:09;;;;;;;6.15;2.92;;;;;;;19.14;70.05;92968.41;2047880;70;20142;-75
2021/07/08 06:15:34;;;;;;;5.00;3.33;;;;;;;19.20;70.14;92974.31;2047879;70;20167;-75
2021/07/08 06:18:00;;;;;;;5.50;2.97;;;;;;;19.27;68.47;92975.25;2047766;70;20620;-76
2021/07/08 06:20:26;;;;;;;3.45;2.63;;;;;;;19.21;69.87;92955.06;2047845;70;20719;-74
2021/07/08 06:22:52;;;;;;;5.97;2.38;;;;;;;19.00;69.83;92953.66;2048363;70;20170;-75
2021/07/08 06:25:18;;;;;;;6.00;2.70;;;;;;;19.08;70.65;92953.94;2048653;70;20621;-75
2021/07/08 06:27:44;;;;;;;3.95;2.42;;;;;;;19.51;68.01;92961.75;2048431;70;20150;-76
2021/07/08 06:30:10;;;;;;;3.53;2.30;;;;;;;19.69;66.45;92949.47;2048584;70;20578;-75
2021/07/08 06:32:36;;;;;;;4.20;2.10;;;;;;;19.90;66.53;92951.56;2048393;70;20226;-75
2021/07/08 06:35:05;;;;;;;2.85;2.17;;;;;;;19.96;66.92;92953.88;2048380;70;20230;-75
2021/07/08 06:37:31;;;;;;;4.57;2.40;;;;;;;20.09;66.35;92946.38;2048485;70;20586;-74
2021/07/08 06:39:57;;;;;;;2.72;2.17;;;;;;;20.08;68.48;92945.66;2048432;70;20163;-76
2021/07/08 06:42:22;;;;;;;2.95;2.05;;;;;;;20.27;67.37;92953.34;2048625;70;20176;-76
2021/07/08 06:44:48;;;;;;;4.35;2.05;;;;;;;20.36;66.15;92948.59;2048424;70;20143;-76
2021/07/08 06:47:19;;;;;;;5.15;2.22;;;;;;;20.45;64.38;92947.44;2048348;70;20158;-74
2021/07/08 06:49:45;;;;;;;2.83;2.10;;;;;;;20.54;66.87;92954.88;2048389;70;20619;-74
2021/07/08 06:52:12;;;;;;;2.88;2.00;;;;;;;20.56;64.38;92945.59;2048603;70;20181;-75
2021/07/08 06:54:38;;;;;;;2.92;2.00;;;;;;;20.68;64.17;92951.66;2047799;70;20174;-75
2021/07/08 06:57:04;;;;;;;4.03;1.98;;;;;;;20.94;65.57;92950.94;2048336;70;20158;-74
2021/07/08 06:59:29;;;;;;;6.05;2.50;;;;;;;21.10;67.62;92942.03;2048505;70;20594;-76
2021/07/08 07:01:55;;;;;;;3.85;2.38;;;;;;;21.13;64.31;92940.69;2048514;70;20146;-75
2021/07/08 07:04:21;;;;;;;3.40;2.20;;;;;;;21.18;64.07;92933.66;2048302;70;20740;-75
2021/07/08 07:06:48;;;;;;;2.45;1.98;;;;;;;21.39;65.73;92927.03;2048351;70;20155;-74
2021/07/08 07:09:14;;;;;;;4.25;2.00;;;;;;;21.44;65.51;92934.31;2048376;70;20139;-77
2021/07/08 07:11:39;;;;;;;2.10;1.90;;;;;;;21.53;63.55;92927.38;2048345;70;20135;-75
2021/07/08 07:14:06;;;;;;;4.05;2.10;;;;;;;21.64;63.19;92931.22;2048407;70;20178;-75
2021/07/08 07:16:32;;;;;;;3.85;2.10;;;;;;;21.71;65.13;92944.25;2048270;70;20166;-76
2021/07/08 07:18:58;;;;;;;4.47;2.35;;;;;;;21.47;64.60;92947.28;2048208;70;20257;-76
2021/07/08 07:21:23;;;;;;;3.85;2.30;;;;;;;21.72;63.85;92951.47;2048303;70;20613;-75
2021/07/08 07:23:49;;;;;;;4.20;2.20;;;;;;;21.92;62.64;92942.59;2048349;70;20521;-76
2021/07/08 07:26:20;;;;;;;2.55;2.17;;;;;;;22.11;64.01;92937.97;2048313;70;20156;-76
2021/07/08 07:28:47;;;;;;;4.05;1.98;;;;;;;22.18;60.89;92938.88;2048355;70;20255;-76
2021/07/08 07:31:13;;;;;;;2.40;2.20;;;;;;;22.11;61.09;92929.38;2048319;70;20146;-75
2021/07/08 07:33:38;;;;;;;4.38;2.45;;;;;;;21.98;61.41;92928.38;2048013;70;20495;-78
2021/07/08 07:36:04;;;;;;;2.95;2.22;;;;;;;22.13;62.14;92917.25;2048225;70;20154;-76
2021/07/08 07:38:30;;;;;;;3.92;2.47;;;;;;;22.00;62.18;92914.09;2048259;70;20154;-75
2021/07/08 07:40:56;;;;;;;3.22;2.38;;;;;;;22.14;61.04;92918.72;2048400;70;20566;-75
2021/07/08 07:43:22;;;;;;;3.47;2.10;;;;;;;22.48;61.55;92912.97;2047728;70;20199;-75
2021/07/08 07:45:49;;;;;;;4.90;2.30;;;;;;;22.39;60.80;92928.53;2048148;70;20236;-76
2021/07/08 07:48:15;;;;;;;3.30;2.10;;;;;;;21.97;61.55;92921.19;2048085;70;20150;-75
2021/07/08 07:50:41;;;;;;;2.80;2.30;;;;;;;21.97;60.56;92926.22;2048106;70;20154;-77
2021/07/08 07:53:07;;;;;;;4.45;2.38;;;;;;;22.21;61.07;92917.41;2048245;70;20186;-76
2021/07/08 07:55:33;;;;;;;2.85;2.30;;;;;;;22.29;60.58;92923.34;2048348;70;20174;-76
2021/07/08 07:58:01;;;;;;;4.78;2.30;;;;;;;22.61;59.86;92926.13;2047689;70;20146;-76
2021/07/08 08:00:28;;;;;;;2.95;2.22;;;;;;;22.33;61.04;92923.41;2048265;70;20578;-76
2021/07/08 08:02:54;;;;;;;2.30;2.10;;;;;;;22.18;60.22;92921.69;2048371;70;20174;-75
2021/07/08 08:10:30;;;;;;;5.70;2.28;;;;;;;23.20;58.38;92912.88;2047671;70;20606;-76
2021/07/08 08:12:55;;;;;;;2.45;2.20;;;;;;;23.49;59.05;92913.34;2048350;70;20154;-76
2021/07/08 08:15:21;;;;;;;2.65;2.28;;;;;;;23.34;57.37;92913.13;2048448;70;20527;-76
2021/07/08 08:17:47;;;;;;;3.42;2.40;;;;;;;23.55;57.98;92914.19;2048180;70;20147;-76
2021/07/08 08:20:16;;;;;;;2.90;2.17;;;;;;;23.84;57.50;92908.88;2048145;70;20151;-77
2021/07/08 08:22:42;;;;;;;4.55;2.40;;;;;;;23.83;56.63;92904.56;2048190;70;20139;-77
2021/07/08 08:25:10;;;;;;;3.53;2.20;;;;;;;24.29;56.35;92916.00;2048212;70;20722;-76
2021/07/08 08:27:37;;;;;;;2.80;2.38;;;;;;;23.68;55.35;92925.88;2048168;70;20153;-77
2021/07/08 08:30:04;;;;;;;2.42;2.20;;;;;;;23.63;57.72;92909.97;2047622;70;20147;-76
2021/07/08 08:32:30;;;;;;;3.10;2.50;;;;;;;24.06;56.24;92900.59;2048275;70;20612;-77
2021/07/08 08:34:55;;;;;;;3.67;2.33;;;;;;;23.99;54.39;92919.16;2047461;70;20155;-77
2021/07/08 08:37:21;;;;;;;4.32;2.20;;;;;;;23.74;55.22;92918.09;2048138;70;20159;-74
2021/07/08 08:39:47;;;;;;;2.42;2.20;;;;;;;23.88;55.72;92900.34;2048288;70;20298;-74
2021/07/08 08:42:14;;;;;;;2.30;2.10;;;;;;;24.33;54.36;92893.03;2048141;70;20142;-74
2021/07/08 08:44:40;;;;;;;3.67;2.00;;;;;;;24.79;54.84;92897.19;2048177;70;20241;-74
2021/07/08 08:47:11;;;;;;;3.25;2.40;;;;;;;24.87;54.00;92893.66;2048147;70;20187;-74
2021/07/08 08:49:41;;;;;;;2.60;2.10;;;;;;;24.66;53.89;92898.47;2048089;70;20157;-74
2021/07/08 08:52:08;;;;;;;2.83;2.20;;;;;;;24.95;53.63;92900.22;2047775;70;20162;-75
2021/07/08 08:54:34;;;;;;;2.97;2.33;;;;;;;24.82;52.85;92892.88;2048127;70;20175;-75
2021/07/08 08:57:01;;;;;;;3.97;2.47;;;;;;;24.98;52.78;92904.59;2047543;70;20228;-76
2021/07/08 08:59:27;;;;;;;2.58;2.10;;;;;;;24.87;52.46;92910.94;2048146;70;20522;-74
2021/07/08 09:02:18;;;;;;;4.10;2.45;;;;;;;24.99;52.12;92906.03;2048118;70;20213;-74
2021/07/08 09:04:46;;;;;;;2.85;2.38;;;;;;;25.11;51.95;92905.47;2048059;70;20162;-76
2021/07/08 09:07:31;;;;;;;3.75;2.08;;;;;;;25.12;52.19;92906.91;2048131;70;20139;-75
2021/07/08 09:10:00;;;;;;;2.40;2.00;;;;;;;25.43;52.02;92896.38;2048125;70;20170;-76
2021/07/08 09:12:26;;;;;;;2.83;2.50;;;;;;;25.19;51.96;92905.53;2048141;70;20590;-76
2021/07/08 09:15:13;;;;;;;2.30;2.00;;;;;;;25.08;52.92;92893.19;2048115;70;20162;-75
2021/07/08 09:17:40;;;;;;;3.08;2.30;;;;;;;25.24;53.11;92904.13;2048196;70;20154;-76
2021/07/08 09:20:14;;;;;;;2.72;2.10;;;;;;;25.05;53.44;92897.44;2048049;70;20185;-77
2021/07/08 09:22:40;;;;;;;4.20;2.20;;;;;;;24.77;53.07;92900.03;2048122;70;20150;-77
2021/07/08 09:25:21;;;;;;;2.65;2.30;;;;;;;24.72;53.70;92889.91;2048080;70;20206;-75
2021/07/08 09:28:08;;;;;;;2.88;2.30;;;;;;;24.94;52.26;92890.13;2047516;70;20234;-77
2021/07/08 09:30:34;;;;;;;3.45;2.15;;;;;;;25.24;52.27;92900.53;2048020;70;20143;-77
2021/07/08 09:33:00;;;;;;;4.03;2.58;;;;;;;25.42;51.87;92894.19;2048005;70;20154;-76
2021/07/08 09:35:35;;;;;;;4.53;2.17;;;;;;;25.53;51.18;92892.84;2048103;70;20139;-76
2021/07/08 09:38:22;;;;;;;3.47;2.05;;;;;;;25.37;52.77;92898.47;2048012;70;20135;-76
2021/07/08 09:41:09;;;;;;;3.28;2.20;;;;;;;25.45;55.75;92892.78;2047519;70;20182;-76
2021/07/08 09:43:37;;;;;;;2.95;1.85;;;;;;;25.29;54.54;92899.13;2048042;70;20162;-76
2021/07/08 09:46:04;;;;;;;2.45;2.00;;;;;;;24.79;53.70;92889.28;2047975;70;20159;-77
2021/07/08 09:48:29;;;;;;;7.57;2.10;;;;;;;25.22;53.62;92886.09;2047997;70;20142;-76
2021/07/08 09:50:56;;;;;;;2.63;2.13;;;;;;;25.03;53.55;92891.66;2047949;70;20673;-76
2021/07/08 09:53:24;;;;;;;2.15;1.95;;;;;;;24.63;54.14;92883.31;2048147;70;20142;-77
2021/07/08 09:58:56;;;;;;;3.55;2.00;;;;;;;24.87;53.27;92887.88;2048443;70;20126;-77
2021/07/08 10:01:23;;;;;;;4.32;2.05;;;;;;;24.62;52.83;92904.91;2048508;70;20603;-76
2021/07/08 10:03:50;;;;;;;1.92;1.70;;;;;;;24.37;52.93;92891.63;2048524;70;20158;-77
2021/07/08 10:06:17;;;;;;;3.85;2.00;;;;;;;24.31;52.56;92892.28;2048509;70;20200;-77
2021/07/08 10:08:43;;;;;;;1.92;1.77;;;;;;;24.15;54.06;92894.94;2048480;70;20233;-77
2021/07/08 10:11:13;;;;;;;2.35;2.13;;;;;;;24.40;53.78;92878.75;2048519;70;20314;-77
2021/07/08 10:13:40;;;;;;;2.78;2.00;;;;;;;24.34;53.82;92879.38;2048488;70;20150;-77
2021/07/08 10:16:06;;;;;;;2.40;2.20;;;;;;;24.14;53.35;92879.81;2048496;70;20163;-78
2021/07/08 10:18:36;;;;;;;2.20;2.00;;;;;;;23.75;54.52;92872.84;2048459;70;20178;-78
2021/07/08 10:21:04;;;;;;;3.22;2.20;;;;;;;23.71;55.11;92876.38;2048327;70;20149;-77
2021/07/08 10:23:34;;;;;;;2.78;2.13;;;;;;;24.20;54.83;92882.06;2048577;70;20150;-77
2021/07/08 10:26:00;;;;;;;2.90;2.20;;;;;;;24.66;54.29;92863.94;2048483;70;20147;-77
2021/07/08 10:28:29;;;;;;;2.70;2.20;;;;;;;24.64;54.02;92858.16;2048449;70;20613;-76
2021/07/08 10:30:56;;;;;;;2.45;2.22;;;;;;;24.29;55.01;92857.72;2048575;70;20147;-77
2021/07/08 10:33:22;;;;;;;2.72;2.13;;;;;;;24.39;54.58;92862.91;2048480;70;20151;-77
2021/07/08 10:35:50;;;;;;;3.83;2.35;;;;;;;24.91;53.10;92859.88;2048312;70;20221;-76
2021/07/08 10:38:32;;;;;;;2.40;2.10;;;;;;;25.62;52.58;92856.91;2048358;70;20222;-76
2021/07/08 10:41:00;;;;;;;3.25;2.10;;;;;;;25.56;54.02;92866.19;2048692;70;20257;-77
2021/07/08 10:43:52;;;;;;;3.55;2.10;;;;;;;26.06;52.29;92873.78;2048365;70;20150;-77
2021/07/08 10:46:17;;;;;;;3.30;2.17;;;;;;;26.03;51.04;92874.50;2047593;70;20652;-77
2021/07/08 10:48:52;;;;;;;1.90;1.80;;;;;;;26.16;51.31;92878.16;2048531;70;20154;-78
2021/07/08 10:51:39;;;;;;;2.35;2.10;;;;;;;25.82;53.19;92890.94;2048466;70;20163;-78
2021/07/08 10:54:28;;;;;;;3.60;2.30;;;;;;;25.10;53.68;92892.47;2048381;70;20161;-78
2021/07/08 10:57:01;;;;;;;3.65;2.13;;;;;;;25.54;52.50;92883.50;2048354;70;20139;-78
2021/07/08 10:59:42;;;;;;;3.90;2.30;;;;;;;24.88;52.62;92869.94;2048349;70;20162;-77
2021/07/08 11:02:08;;;;;;;2.20;2.00;;;;;;;24.91;52.20;92871.38;2048419;70;20258;-78
2021/07/08 11:04:51;;;;;;;3.28;2.30;;;;;;;24.69;53.07;92880.50;2048176;70;20156;-78
2021/07/08 11:07:19;;;;;;;4.20;1.93;;;;;;;24.68;53.02;92884.09;2048459;70;20157;-79
2021/07/08 11:10:05;;;;;;;2.20;1.92;;;;;;;24.76;54.15;92889.94;2048308;70;20163;-78
2021/07/08 11:12:36;;;;;;;3.13;2.10;;;;;;;24.99;52.81;92896.66;2047755;70;20645;-78
2021/07/08 11:15:04;;;;;;;2.30;1.85;;;;;;;24.43;52.04;92903.97;2048286;70;20138;-78
2021/07/08 11:17:45;;;;;;;2.10;1.83;;;;;;;24.13;55.03;92927.25;2048220;70;20157;-78
2021/07/08 11:20:30;;;;;;;2.70;2.10;;;;;;;24.22;54.91;92943.22;2048176;70;20241;-78
2021/07/08 11:22:57;;;;;;;2.17;2.03;;;;;;;24.27;54.62;92932.47;2048213;70;20150;-78
2021/07/08 11:25:41;;;;;;;6.78;2.20;;;;;;;24.56;54.27;92917.06;2048225;70;20166;-79
2021/07/08 11:28:58;;;;;;;2.33;1.85;;;;;;;25.30;52.59;92909.97;2048344;70;20143;-79
2021/07/08 11:31:34;;;;;;;2.47;2.28;;;;;;;24.77;52.24;92900.03;2034050;70;20509;-78
2021/07/08 11:34:01;;;;;;;2.47;2.00;;;;;;;24.90;52.70;92912.41;2033823;70;20167;-78
2021/07/08 11:36:27;;;;;;;2.20;1.83;;;;;;;24.65;53.30;92920.78;2034053;70;20149;-80
2021/07/08 11:38:54;;;;;;;2.65;2.00;;;;;;;24.71;53.72;92914.38;2033971;70;20260;-78
2021/07/08 11:41:25;;;;;;;2.22;1.90;;;;;;;24.75;53.89;92920.88;2033905;70;20148;-87
2021/07/08 11:43:52;;;;;;;3.88;2.25;;;;;;;24.68;53.87;92921.50;2034103;70;20148;-78
2021/07/08 11:46:19;;;;;;;3.42;2.20;;;;;;;24.62;54.08;92919.28;2031122;70;20175;-77